createdAt,value
2022-11-17T01:00:37.336Z,27.50
2022-11-17T01:02:23.488Z,27.42
2022-11-17T01:04:09.661Z,27.00
2022-11-17T01:05:55.836Z,27.00
2022-11-17T01:07:42.676Z,27.00
2022-11-17T01:09:28.849Z,27.17
2022-11-17T01:11:15.081Z,27.47
2022-11-17T01:13:01.349Z,27.50
2022-11-17T01:14:47.622Z,27.51
2022-11-17T01:16:33.946Z,28.00
2022-11-17T01:18:20.169Z,27.95
2022-11-17T01:20:06.746Z,27.99
2022-11-17T01:21:53.252Z,28.19
2022-11-17T01:23:39.520Z,28.79
2022-11-17T01:25:25.764Z,29.42
2022-11-17T01:27:12.058Z,29.32
2022-11-17T01:28:58.420Z,29.48
2022-11-17T01:30:44.700Z,30.00
2022-11-17T01:32:31.003Z,30.50
2022-11-17T01:34:17.139Z,30.52
2022-11-17T01:36:03.583Z,31.66
2022-11-17T01:37:49.885Z,30.83
2022-11-17T01:39:36.098Z,30.93
2022-11-17T01:41:22.387Z,30.84
2022-11-17T01:43:09.319Z,30.66
2022-11-17T01:44:55.589Z,30.00
2022-11-17T01:46:41.859Z,30.00
2022-11-17T01:48:28.136Z,30.95
2022-11-17T01:50:14.445Z,31.65
2022-11-17T01:52:00.690Z,32.22
2022-11-17T01:53:46.875Z,30.95
2022-11-17T01:55:33.158Z,30.52
2022-11-17T01:57:19.623Z,31.18
2022-11-17T01:59:06.192Z,31.79
2022-11-17T02:00:52.436Z,31.17
2022-11-17T02:02:38.702Z,31.37
2022-11-17T02:04:25.319Z,30.78
2022-11-17T02:06:11.472Z,30.50
2022-11-17T02:07:58.052Z,30.54
2022-11-17T02:09:44.289Z,30.50
2022-11-17T02:11:30.767Z,31.42
2022-11-17T14:43:34.912Z,24.50
2022-11-17T14:45:21.774Z,24.50
2022-11-17T14:47:08.130Z,24.50
